createdAt,value
2023-06-06T00:01:24.361Z,4.18
2023-06-06T00:04:28.869Z,4.63
2023-06-06T00:07:34.059Z,4.13
2023-06-06T00:10:40.405Z,3.90
2023-06-06T00:13:45.533Z,4.13
2023-06-06T00:16:50.101Z,4.13
2023-06-06T00:19:56.053Z,4.10
2023-06-06T00:22:59.405Z,3.95
2023-06-06T00:26:02.318Z,4.30
2023-06-06T00:29:05.400Z,4.07
2023-06-06T00:32:08.435Z,3.92
2023-06-06T00:35:11.587Z,3.90
2023-06-06T00:38:14.581Z,4.00
2023-06-06T00:41:17.877Z,4.38
2023-06-06T00:44:22.312Z,4.03
2023-06-06T00:47:28.428Z,4.15
2023-06-06T00:50:32.185Z,4.00
2023-06-06T00:53:38.645Z,3.80
2023-06-06T00:56:45.193Z,4.05
2023-06-06T00:59:48.494Z,4.15
2023-06-06T01:02:51.450Z,3.70
2023-06-06T01:05:55.003Z,4.03
2023-06-06T01:09:06.496Z,4.13
2023-06-06T01:12:37.119Z,4.00
2023-06-06T01:15:49.349Z,3.75
2023-06-06T01:18:53.790Z,3.92
2023-06-06T01:21:58.680Z,4.50
2023-06-06T01:25:05.166Z,4.38
2023-06-06T01:28:14.815Z,4.28
2023-06-06T01:31:23.514Z,4.20
2023-06-06T01:34:40.407Z,4.20
2023-06-06T01:37:53.912Z,3.63
2023-06-06T01:40:59.677Z,4.00
2023-06-06T01:44:04.235Z,3.95
2023-06-06T01:47:09.029Z,4.15
2023-06-06T01:50:14.058Z,4.00
2023-06-06T01:53:17.142Z,4.10
2023-06-06T01:56:20.441Z,4.20
2023-06-06T01:59:24.246Z,4.15
2023-06-06T02:02:28.633Z,4.30
2023-06-06T02:05:31.845Z,4.20
2023-06-06T02:08:35.237Z,4.27
2023-06-06T02:11:42.747Z,4.70
2023-06-06T02:14:46.275Z,4.55
2023-06-06T02:17:50.660Z,5.00
2023-06-06T02:20:53.938Z,5.43
2023-06-06T02:23:59.713Z,4.60
2023-06-06T02:27:08.202Z,5.20
2023-06-06T02:30:12.221Z,5.10
2023-06-06T02:33:15.529Z,6.18
2023-06-06T02:36:19.922Z,5.78
2023-06-06T02:39:25.727Z,5.27
2023-06-06T02:42:29.687Z,5.28
2023-06-06T02:45:39.564Z,6.00
2023-06-06T02:48:46.970Z,7.15
2023-06-06T02:51:51.925Z,6.13
2023-06-06T02:54:56.561Z,5.60
2023-06-06T02:58:00.258Z,5.00
2023-06-06T03:01:06.464Z,5.10
2023-06-06T03:04:13.333Z,5.05
2023-06-06T03:07:18.392Z,4.90
2023-06-06T03:10:24.917Z,4.90
2023-06-06T03:13:28.528Z,5.05
2023-06-06T03:16:32.064Z,4.95
2023-06-06T03:19:36.006Z,4.68
2023-06-06T03:22:41.290Z,4.82
2023-06-06T03:25:45.598Z,5.13
2023-06-06T03:28:50.795Z,4.72
2023-06-06T03:31:54.510Z,5.20
2023-06-06T03:34:57.785Z,4.80
2023-06-06T03:38:02.642Z,5.28
2023-06-06T03:41:05.833Z,5.03
2023-06-06T03:44:10.490Z,5.60
2023-06-06T03:47:14.006Z,5.75
2023-06-06T03:50:17.811Z,5.03
2023-06-06T03:53:21.248Z,5.40
2023-06-06T03:56:25.156Z,6.33
2023-06-06T03:59:27.919Z,6.18
2023-06-06T04:02:31.408Z,5.25
2023-06-06T04:05:34.408Z,5.65
2023-06-06T04:08:37.479Z,5.70
2023-06-06T04:11:40.556Z,5.80
2023-06-06T04:14:44.142Z,5.20
2023-06-06T04:17:46.932Z,5.32
2023-06-06T04:20:49.773Z,5.15
2023-06-06T04:23:57.271Z,5.40
2023-06-06T04:27:04.719Z,5.47
2023-06-06T04:30:10.379Z,5.72
2023-06-06T04:33:13.570Z,5.65
2023-06-06T04:36:16.507Z,5.65
2023-06-06T04:39:24.199Z,6.07
2023-06-06T04:42:37.294Z,5.73
2023-06-06T04:45:40.878Z,5.97
2023-06-06T04:48:46.684Z,4.95
2023-06-06T04:51:49.548Z,5.25
2023-06-06T04:54:53.361Z,5.47
2023-06-06T04:57:57.045Z,5.47
2023-06-06T05:01:00.176Z,5.68
2023-06-06T05:04:04.554Z,6.03
2023-06-06T05:07:10.344Z,5.93
2023-06-06T05:10:13.978Z,5.90
2023-06-06T05:13:22.481Z,5.57
2023-06-06T05:16:28.977Z,5.65
2023-06-06T05:19:32.728Z,6.05
2023-06-06T05:22:36.514Z,6.20
2023-06-06T05:25:43.580Z,6.03
2023-06-06T05:28:47.419Z,6.03
2023-06-06T05:31:51.049Z,7.15
2023-06-06T05:34:55.053Z,7.03
2023-06-06T05:37:58.742Z,7.18
2023-06-06T05:41:04.274Z,7.18
2023-06-06T05:44:16.481Z,7.50
2023-06-06T05:47:49.883Z,7.57
2023-06-06T05:51:17.733Z,7.60
2023-06-06T05:54:41.507Z,6.18
2023-06-06T05:57:57.815Z,6.70
2023-06-06T06:01:02.581Z,6.80
2023-06-06T06:04:10.508Z,7.38
2023-06-06T06:07:15.508Z,6.45
2023-06-06T06:10:22.466Z,7.85
2023-06-06T06:13:26.547Z,6.38
2023-06-06T06:16:31.633Z,5.87
2023-06-06T06:19:41.108Z,6.32
2023-06-06T06:22:45.718Z,5.63
2023-06-06T06:25:49.205Z,6.20
2023-06-06T06:28:56.457Z,5.85
2023-06-06T06:32:00.167Z,6.40
2023-06-06T06:35:09.683Z,6.20
2023-06-06T06:38:13.574Z,6.03
2023-06-06T06:41:19.001Z,6.35
2023-06-06T06:44:23.917Z,6.15
2023-06-06T06:47:31.113Z,6.13
2023-06-06T06:50:50.558Z,5.80
2023-06-06T06:53:59.454Z,6.70
2023-06-06T06:57:21.963Z,7.07
2023-06-06T07:00:31.931Z,6.65
2023-06-06T07:03:38.242Z,6.70
2023-06-06T07:06:48.197Z,6.82
2023-06-06T07:09:58.242Z,6.75
2023-06-06T07:13:01.636Z,5.68
2023-06-06T07:16:10.752Z,5.45
2023-06-06T07:19:19.002Z,5.50
2023-06-06T07:22:23.842Z,5.38
2023-06-06T07:25:33.346Z,5.90
2023-06-06T07:29:03.239Z,5.50
2023-06-06T07:32:14.285Z,6.10
2023-06-06T07:35:21.451Z,5.30
2023-06-06T07:38:26.683Z,5.10
2023-06-06T07:41:32.722Z,5.38
2023-06-06T07:44:35.932Z,4.88
2023-06-06T07:47:42.227Z,4.82
2023-06-06T07:50:46.766Z,4.90
2023-06-06T07:53:53.927Z,5.18
2023-06-06T07:56:58.349Z,5.10
2023-06-06T08:00:02.038Z,5.03
2023-06-06T08:04:48.028Z,5.22
2023-06-06T08:08:30.826Z,5.07
2023-06-06T08:16:33.126Z,6.40
2023-06-06T08:19:40.506Z,5.80
2023-06-06T08:22:54.248Z,5.75
2023-06-06T08:26:00.136Z,5.97
2023-06-06T08:29:30.135Z,6.13
2023-06-06T08:32:41.389Z,5.82
2023-06-06T08:35:44.869Z,6.20
2023-06-06T08:38:51.351Z,5.95
2023-06-06T08:41:57.771Z,5.90
2023-06-06T08:45:28.115Z,5.13
2023-06-06T08:50:02.459Z,5.43
2023-06-06T08:58:10.673Z,5.40
2023-06-06T09:01:23.703Z,6.03
2023-06-06T09:04:28.280Z,5.70
2023-06-06T09:08:00.154Z,5.45
2023-06-06T09:14:56.505Z,4.95
2023-06-06T09:18:11.877Z,5.27
2023-06-06T09:21:20.057Z,5.15
2023-06-06T09:24:24.256Z,5.38
2023-06-06T09:27:31.743Z,5.43
2023-06-06T09:30:37.712Z,5.63
2023-06-06T09:33:49.557Z,5.27
2023-06-06T09:36:58.530Z,4.90
2023-06-06T09:40:19.650Z,5.05
2023-06-06T09:43:28.847Z,5.35
2023-06-06T09:46:37.890Z,5.10
2023-06-06T09:49:45.549Z,5.07
2023-06-06T09:52:53.808Z,5.20
2023-06-06T09:56:47.276Z,4.95
2023-06-06T09:59:55.565Z,4.75
2023-06-06T10:03:18.628Z,4.30
2023-06-06T10:10:08.898Z,4.65
2023-06-06T10:13:24.204Z,4.82
2023-06-06T10:16:40.715Z,4.60
2023-06-06T10:19:51.860Z,5.35
2023-06-06T10:23:00.799Z,5.30
2023-06-06T10:26:24.732Z,6.00
2023-06-06T10:29:51.967Z,5.50
2023-06-06T10:33:43.109Z,4.93
2023-06-06T10:37:03.091Z,5.05
2023-06-06T10:40:11.328Z,4.97
2023-06-06T10:48:47.869Z,4.60
2023-06-06T10:52:08.932Z,4.57
2023-06-06T10:55:50.871Z,4.90
2023-06-06T10:58:55.591Z,4.83
2023-06-06T11:02:12.465Z,5.32
2023-06-06T11:05:23.057Z,5.85
2023-06-06T11:08:52.933Z,6.57
2023-06-06T11:12:19.310Z,6.05
2023-06-06T11:15:33.166Z,5.40
2023-06-06T11:18:40.963Z,5.57
2023-06-06T11:22:10.828Z,5.75
2023-06-06T11:25:22.222Z,6.05
2023-06-06T11:28:28.444Z,5.53
2023-06-06T11:31:37.049Z,5.50
2023-06-06T11:34:43.073Z,5.70
2023-06-06T11:37:47.820Z,5.80
2023-06-06T11:41:00.163Z,5.03
2023-06-06T11:44:14.865Z,4.93
2023-06-06T11:47:19.333Z,5.53
2023-06-06T11:50:35.616Z,5.15
2023-06-06T11:53:39.712Z,4.72
2023-06-06T11:56:47.380Z,5.00
2023-06-06T12:00:47.164Z,5.35
2023-06-06T12:04:16.796Z,5.60
2023-06-06T12:07:46.328Z,4.65
2023-06-06T12:10:58.292Z,5.15
2023-06-06T12:21:49.340Z,4.93
2023-06-06T12:24:59.888Z,5.20
2023-06-06T12:28:18.299Z,4.70
2023-06-06T12:31:31.945Z,4.72
2023-06-06T12:35:03.476Z,4.82
2023-06-06T12:38:19.851Z,3.77
2023-06-06T12:41:57.692Z,3.92
2023-06-06T12:45:26.359Z,4.20
2023-06-06T12:48:51.259Z,4.80
2023-06-06T12:52:16.018Z,4.40
2023-06-06T12:55:21.375Z,4.57
2023-06-06T12:58:25.037Z,4.60
2023-06-06T13:01:44.818Z,4.95
2023-06-06T13:05:16.679Z,5.13
2023-06-06T13:13:33.431Z,4.13
2023-06-06T13:17:13.197Z,4.50
2023-06-06T13:20:35.778Z,4.10
2023-06-06T13:23:55.806Z,4.25
2023-06-06T13:31:10.610Z,4.10
2023-06-06T13:34:17.930Z,4.30
2023-06-06T13:37:39.861Z,4.15
2023-06-06T13:42:07.238Z,4.03
2023-06-06T13:49:31.068Z,4.07
2023-06-06T13:58:31.790Z,4.28
2023-06-06T14:01:48.979Z,4.28
2023-06-06T14:05:37.707Z,4.15
2023-06-06T14:08:58.246Z,3.80
2023-06-06T14:12:06.877Z,3.70
2023-06-06T14:15:46.592Z,3.53
2023-06-06T14:19:00.354Z,4.40
2023-06-06T14:22:33.689Z,4.55
2023-06-06T14:25:39.190Z,4.00
2023-06-06T14:28:55.262Z,4.00
2023-06-06T14:32:02.265Z,4.00
2023-06-06T14:35:09.546Z,3.90
2023-06-06T14:38:12.957Z,3.80
2023-06-06T14:41:16.343Z,3.53
2023-06-06T14:44:21.381Z,3.80
2023-06-06T14:47:24.918Z,4.22
2023-06-06T14:50:28.437Z,4.07
2023-06-06T14:53:31.558Z,3.90
2023-06-06T14:56:34.790Z,3.33
2023-06-06T14:59:40.999Z,3.67
2023-06-06T15:02:44.075Z,3.80
2023-06-06T15:05:46.876Z,3.72
2023-06-06T15:08:49.801Z,4.07
2023-06-06T15:11:55.472Z,4.00
2023-06-06T15:15:00.190Z,4.03
2023-06-06T15:18:03.800Z,3.83
2023-06-06T15:21:07.058Z,4.00
2023-06-06T15:24:10.337Z,4.47
2023-06-06T15:27:13.886Z,4.70
2023-06-06T15:30:17.025Z,4.35
2023-06-06T15:33:20.422Z,4.50
2023-06-06T15:36:23.724Z,4.47
2023-06-06T15:39:27.869Z,4.53
2023-06-06T15:42:30.936Z,4.77
2023-06-06T15:45:34.343Z,4.60
2023-06-06T15:48:37.372Z,4.60
2023-06-06T15:51:41.800Z,5.55
2023-06-06T15:54:44.675Z,4.82
2023-06-06T15:57:48.066Z,5.30
2023-06-06T16:00:51.334Z,5.20
2023-06-06T16:03:55.862Z,5.95
2023-06-06T16:06:58.912Z,5.65
2023-06-06T16:10:02.195Z,5.80
2023-06-06T16:13:06.506Z,5.67
2023-06-06T16:16:11.121Z,5.75
2023-06-06T16:19:15.389Z,5.53
2023-06-06T16:22:19.523Z,5.47
2023-06-06T16:25:22.584Z,5.95
2023-06-06T16:28:25.974Z,5.50
2023-06-06T16:31:32.427Z,6.03
2023-06-06T16:34:37.222Z,6.28
2023-06-06T16:37:41.330Z,6.47
2023-06-06T16:40:44.535Z,6.50
2023-06-06T16:43:47.797Z,5.80
2023-06-06T16:46:58.774Z,5.60
2023-06-06T16:50:03.368Z,5.88
2023-06-06T16:53:06.847Z,6.25
2023-06-06T16:56:11.251Z,6.18
2023-06-06T16:59:17.701Z,5.87
2023-06-06T17:02:30.422Z,6.10
2023-06-06T17:05:34.185Z,6.72
2023-06-06T17:08:37.716Z,6.10
2023-06-06T17:11:44.758Z,6.25
2023-06-06T17:14:49.049Z,6.27
2023-06-06T17:17:53.038Z,6.03
2023-06-06T17:20:56.649Z,6.78
2023-06-06T17:24:00.214Z,6.38
2023-06-06T17:27:04.923Z,6.82
2023-06-06T17:30:09.129Z,6.50
2023-06-06T17:33:13.259Z,6.70
2023-06-06T17:36:17.137Z,6.50
2023-06-06T17:39:21.529Z,6.18
2023-06-06T17:42:25.107Z,6.00
2023-06-06T17:45:29.710Z,6.53
2023-06-06T17:48:38.108Z,6.07
2023-06-06T17:51:41.194Z,5.85
2023-06-06T17:54:44.038Z,6.35
2023-06-06T17:57:46.898Z,6.93
2023-06-06T18:00:50.044Z,6.30
2023-06-06T18:07:00.841Z,6.53
2023-06-06T18:10:05.160Z,7.05
2023-06-06T18:13:08.217Z,7.03
2023-06-06T18:16:12.080Z,6.47
2023-06-06T18:19:15.282Z,7.13
2023-06-06T18:22:19.122Z,7.15
2023-06-06T18:25:22.388Z,6.78
2023-06-06T18:28:25.551Z,6.80
2023-06-06T18:31:37.659Z,6.77
2023-06-06T18:34:41.857Z,6.85
2023-06-06T18:37:47.138Z,6.43
2023-06-06T18:40:50.109Z,6.82
2023-06-06T18:43:52.788Z,6.85
2023-06-06T18:46:55.861Z,7.20
2023-06-06T18:49:59.576Z,7.25
2023-06-06T18:53:03.150Z,8.20
2023-06-06T18:56:06.889Z,7.55
2023-06-06T18:59:09.687Z,7.72
2023-06-06T19:02:12.697Z,8.37
2023-06-06T19:05:15.755Z,8.55
2023-06-06T19:08:18.636Z,8.63
2023-06-06T19:11:22.393Z,8.57
2023-06-06T19:14:25.193Z,8.15
2023-06-06T19:17:28.205Z,8.77
2023-06-06T19:20:31.062Z,8.32
2023-06-06T19:23:34.255Z,7.88
2023-06-06T19:26:37.201Z,7.60
2023-06-06T19:29:40.063Z,8.10
2023-06-06T19:32:43.686Z,7.80
2023-06-06T19:35:47.565Z,8.48
2023-06-06T19:38:50.374Z,7.95
2023-06-06T19:41:53.351Z,8.50
2023-06-06T19:44:56.826Z,8.43
2023-06-06T19:47:59.747Z,8.60
2023-06-06T19:51:03.940Z,8.05
2023-06-06T19:54:07.237Z,7.78
2023-06-06T19:57:10.357Z,8.65
2023-06-06T20:00:14.694Z,8.15
2023-06-06T20:03:17.626Z,9.00
2023-06-06T20:06:20.604Z,7.28
2023-06-06T20:09:23.741Z,7.22
2023-06-06T20:12:27.125Z,7.20
2023-06-06T20:15:30.317Z,7.18
2023-06-06T20:18:33.216Z,6.90
2023-06-06T20:21:36.648Z,6.93
2023-06-06T20:24:39.424Z,6.50
2023-06-06T20:27:42.129Z,7.15
2023-06-06T20:30:47.763Z,6.80
2023-06-06T20:33:50.641Z,6.53
2023-06-06T20:36:53.425Z,6.40
2023-06-06T20:40:16.187Z,6.43
2023-06-06T20:43:22.241Z,7.40
2023-06-06T20:46:25.280Z,7.13
2023-06-06T20:49:29.864Z,6.83
2023-06-06T20:52:36.105Z,7.55
2023-06-06T20:55:39.336Z,6.88
2023-06-06T20:58:45.415Z,6.82
2023-06-06T21:01:48.953Z,6.70
2023-06-06T21:04:51.982Z,6.67
2023-06-06T21:07:54.852Z,6.22
2023-06-06T21:10:58.246Z,6.68
2023-06-06T21:14:02.041Z,6.25
2023-06-06T21:17:05.314Z,6.72
2023-06-06T21:20:09.599Z,6.70
2023-06-06T21:23:13.124Z,5.97
2023-06-06T21:26:17.297Z,6.50
2023-06-06T21:29:21.211Z,6.88
2023-06-06T21:32:25.459Z,6.70
2023-06-06T21:35:31.960Z,6.60
2023-06-06T21:38:35.235Z,6.68
2023-06-06T21:41:38.824Z,6.78
2023-06-06T21:44:41.952Z,6.40
2023-06-06T21:47:45.113Z,6.80
2023-06-06T21:50:48.498Z,6.30
2023-06-06T21:53:52.047Z,6.60
2023-06-06T21:56:55.132Z,5.80
2023-06-06T21:59:58.747Z,6.05
2023-06-06T22:03:02.309Z,6.03
2023-06-06T22:06:05.623Z,6.03
2023-06-06T22:09:09.000Z,5.88
2023-06-06T22:12:12.248Z,5.75
2023-06-06T22:15:15.210Z,6.10
2023-06-06T22:18:18.392Z,5.95
2023-06-06T22:21:21.401Z,6.40
2023-06-06T22:24:24.697Z,6.25
2023-06-06T22:27:27.930Z,6.40
2023-06-06T22:30:31.835Z,6.28
2023-06-06T22:33:36.890Z,7.22
2023-06-06T22:36:39.988Z,6.20
2023-06-06T22:39:49.108Z,6.68
2023-06-06T22:42:52.165Z,6.28
2023-06-06T22:45:57.641Z,6.78
2023-06-06T22:49:01.253Z,6.45
2023-06-06T22:52:04.680Z,6.57
2023-06-06T22:55:08.361Z,6.53
2023-06-06T22:58:13.685Z,7.00
2023-06-06T23:01:17.063Z,6.68
2023-06-06T23:04:19.995Z,7.10
2023-06-06T23:07:23.102Z,6.70
2023-06-06T23:10:26.323Z,7.47
2023-06-06T23:13:29.328Z,7.45
2023-06-06T23:16:35.205Z,7.28
2023-06-06T23:19:38.999Z,7.22
2023-06-06T23:22:44.009Z,7.50
2023-06-06T23:25:48.450Z,7.00
2023-06-06T23:28:51.687Z,6.70
2023-06-06T23:31:54.856Z,7.10
2023-06-06T23:34:58.143Z,7.20
2023-06-06T23:38:01.190Z,7.20
2023-06-06T23:41:04.166Z,6.95
2023-06-06T23:44:07.144Z,7.15
2023-06-06T23:47:10.475Z,6.97
2023-06-06T23:50:13.487Z,6.65
2023-06-06T23:53:16.336Z,6.77
2023-06-06T23:56:19.226Z,6.90
2023-06-06T23:59:25.833Z,6.45
